createdAt,value
2019-01-15T00:00:44.790Z,44.15
2019-01-15T00:01:42.685Z,44.27
2019-01-15T00:02:38.942Z,44.01
2019-01-15T00:03:35.975Z,44.28
2019-01-15T00:04:33.002Z,44.07
2019-01-15T00:05:30.058Z,44.46
2019-01-15T00:06:27.123Z,44.28
2019-01-15T00:07:25.086Z,44.28
2019-01-15T00:08:21.253Z,44.11
2019-01-15T00:09:18.415Z,44.30
2019-01-15T00:10:15.737Z,44.32
2019-01-15T00:11:12.619Z,44.29
2019-01-15T00:12:09.507Z,44.26
2019-01-15T00:13:06.589Z,44.27
2019-01-15T00:14:03.646Z,44.28
2019-01-15T00:15:00.739Z,44.27
2019-01-15T00:15:57.779Z,44.27
2019-01-15T00:16:54.877Z,44.28
2019-01-15T00:17:52.803Z,44.27
2019-01-15T00:18:49.017Z,44.26
2019-01-15T00:19:46.045Z,44.13
2019-01-15T00:20:43.139Z,44.27
2019-01-15T00:21:40.204Z,44.01
2019-01-15T00:22:38.146Z,43.78
2019-01-15T00:23:34.364Z,44.29
2019-01-15T00:24:32.376Z,43.96
2019-01-15T00:25:28.495Z,44.27
2019-01-15T00:26:25.520Z,44.51
2019-01-15T00:27:22.645Z,44.29
2019-01-15T00:28:19.670Z,44.27
2019-01-15T00:29:16.699Z,44.27
2019-01-15T00:30:14.662Z,44.27
2019-01-15T00:31:10.858Z,44.29
2019-01-15T00:32:07.901Z,43.99
2019-01-15T00:33:04.978Z,44.74
2019-01-15T00:34:02.064Z,44.28
2019-01-15T00:34:59.158Z,44.11
2019-01-15T00:35:56.205Z,44.21
2019-01-15T00:36:53.258Z,44.28
2019-01-15T00:37:50.371Z,44.27
2019-01-15T00:38:47.362Z,44.27
2019-01-15T00:39:44.450Z,43.96
2019-01-15T00:40:42.388Z,44.26
2019-01-15T00:41:38.571Z,44.25
2019-01-15T00:42:35.675Z,44.52
2019-01-15T00:43:32.696Z,44.30
2019-01-15T00:44:30.652Z,44.28
2019-01-15T00:45:26.832Z,44.47
2019-01-15T00:46:23.905Z,44.27
2019-01-15T00:47:21.046Z,44.13
2019-01-15T00:48:18.111Z,44.19
2019-01-15T00:49:16.984Z,44.30
2019-01-15T00:50:12.207Z,44.02
2019-01-15T00:51:09.252Z,44.30
2019-01-15T00:52:06.352Z,44.41
2019-01-15T00:53:03.420Z,44.31
2019-01-15T00:54:00.415Z,44.31
2019-01-15T00:54:57.549Z,44.47
2019-01-15T00:55:55.441Z,44.34
2019-01-15T00:56:51.644Z,44.32
2019-01-15T00:57:48.682Z,44.52
2019-01-15T00:58:45.794Z,44.32
2019-01-15T00:59:42.843Z,44.32
2019-01-15T01:00:39.889Z,44.33
2019-01-15T01:01:36.995Z,44.32
2019-01-15T01:02:34.101Z,44.20
2019-01-15T01:03:31.139Z,44.06
2019-01-15T01:04:28.151Z,44.35
2019-01-15T01:05:25.291Z,44.07
2019-01-15T01:06:22.298Z,44.35
2019-01-15T01:07:19.335Z,44.36
2019-01-15T01:08:16.434Z,44.36
2019-01-15T01:09:13.473Z,43.89
2019-01-15T01:10:10.543Z,44.35
2019-01-15T01:11:07.632Z,44.43
2019-01-15T01:12:04.697Z,44.58
2019-01-15T01:13:01.763Z,44.45
2019-01-15T01:13:58.807Z,44.29
2019-01-15T01:14:55.868Z,44.37
2019-01-15T01:15:52.951Z,44.36
2019-01-15T01:16:50.013Z,44.36
2019-01-15T01:17:47.100Z,44.37
2019-01-15T01:18:44.152Z,44.36
2019-01-15T01:19:42.095Z,45.04
2019-01-15T01:20:38.370Z,44.37
2019-01-15T01:21:35.339Z,44.37
2019-01-15T01:22:32.413Z,44.36
2019-01-15T01:23:30.347Z,44.37
2019-01-15T01:24:26.576Z,44.37
2019-01-15T01:25:23.689Z,44.37
2019-01-15T01:26:20.664Z,44.37
2019-01-15T01:27:17.723Z,44.48
2019-01-15T01:28:14.845Z,44.16
2019-01-15T01:29:11.867Z,44.37
2019-01-15T01:30:10.284Z,44.36
2019-01-15T01:31:06.041Z,44.37
2019-01-15T01:32:03.171Z,44.77
2019-01-15T01:33:00.215Z,44.38
2019-01-15T01:33:57.198Z,44.50
2019-01-15T01:34:54.284Z,44.00
2019-01-15T01:35:52.667Z,44.38
2019-01-15T01:36:48.384Z,44.66
2019-01-15T01:37:45.484Z,44.38
2019-01-15T01:38:43.406Z,44.38
2019-01-15T01:39:39.625Z,44.57
2019-01-15T01:40:37.545Z,44.19
2019-01-15T01:41:33.760Z,44.38
2019-01-15T01:42:31.665Z,44.40
2019-01-15T01:43:27.903Z,44.16
2019-01-15T01:44:25.019Z,44.39
2019-01-15T01:45:22.061Z,44.55
2019-01-15T01:46:19.155Z,44.13
2019-01-15T01:47:16.441Z,44.81
2019-01-15T01:48:13.234Z,44.39
2019-01-15T01:49:11.315Z,44.38
2019-01-15T01:50:07.366Z,44.38
2019-01-15T01:51:06.266Z,44.38
2019-01-15T01:52:01.469Z,44.39
2019-01-15T01:52:58.573Z,44.38
2019-01-15T01:53:56.610Z,44.39
2019-01-15T01:54:52.630Z,44.52
2019-01-15T01:55:49.772Z,44.38
2019-01-15T01:56:46.781Z,44.26
2019-01-15T01:57:44.736Z,44.37
2019-01-15T01:58:40.908Z,44.40
2019-01-15T01:59:37.977Z,44.38
2019-01-15T02:00:35.070Z,44.38
2019-01-15T02:01:32.174Z,44.39
2019-01-15T02:02:29.162Z,44.39
2019-01-15T02:03:26.260Z,44.40
2019-01-15T02:04:23.322Z,44.53
2019-01-15T02:05:20.398Z,44.39
2019-01-15T02:06:17.431Z,44.38
2019-01-15T02:07:14.627Z,44.53
2019-01-15T02:08:11.647Z,44.40
2019-01-15T02:09:08.658Z,44.38
2019-01-15T02:10:05.743Z,44.40
2019-01-15T02:11:02.788Z,44.41
2019-01-15T02:11:59.831Z,44.28
2019-01-15T02:12:56.964Z,44.42
2019-01-15T02:13:53.963Z,44.41
2019-01-15T02:14:51.039Z,44.63
2019-01-15T02:15:48.123Z,44.43
2019-01-15T02:16:45.160Z,44.43
2019-01-15T02:17:42.226Z,44.43
2019-01-15T02:18:39.290Z,44.37
2019-01-15T02:19:36.450Z,44.39
2019-01-15T02:20:34.429Z,43.79
2019-01-15T02:21:30.579Z,44.39
2019-01-15T02:22:27.608Z,44.41
2019-01-15T02:23:24.700Z,44.40
2019-01-15T02:24:21.755Z,44.41
2019-01-15T02:25:18.766Z,44.39
2019-01-15T02:26:15.843Z,44.55
2019-01-15T02:27:12.881Z,44.40
2019-01-15T02:28:10.031Z,44.40
2019-01-15T02:29:07.014Z,44.63
2019-01-15T02:30:04.164Z,44.41
2019-01-15T02:31:02.145Z,44.69
2019-01-15T02:32:13.035Z,44.10
2019-01-15T02:32:55.313Z,44.41
2019-01-15T02:33:53.242Z,44.39
2019-01-15T02:34:49.411Z,44.39
2019-01-15T02:35:46.541Z,44.39
2019-01-15T02:36:44.536Z,44.39
2019-01-15T02:37:40.873Z,44.35
2019-01-15T02:38:38.560Z,44.37
2019-01-15T02:39:35.629Z,44.20
2019-01-15T02:40:31.905Z,44.39
2019-01-15T02:41:28.871Z,44.33
2019-01-15T02:42:26.003Z,44.40
2019-01-15T02:43:23.006Z,44.40
2019-01-15T02:44:20.097Z,44.41
2019-01-15T02:45:17.158Z,44.54
2019-01-15T02:46:14.194Z,44.70
2019-01-15T02:47:11.297Z,44.40
2019-01-15T02:48:08.344Z,44.39
2019-01-15T02:49:05.428Z,44.38
2019-01-15T02:50:03.383Z,44.41
2019-01-15T02:50:59.564Z,45.21
2019-01-15T02:51:56.705Z,44.75
2019-01-15T02:52:53.939Z,44.22
2019-01-15T02:53:50.736Z,44.39
2019-01-15T02:54:47.858Z,44.39
2019-01-15T02:55:44.888Z,44.28
2019-01-15T02:56:42.007Z,44.40
2019-01-15T02:57:39.027Z,44.48
2019-01-15T02:58:36.962Z,44.38
2019-01-15T02:59:33.198Z,44.29
2019-01-15T03:00:31.084Z,44.40
2019-01-15T03:01:27.345Z,44.39
2019-01-15T03:02:25.211Z,44.40
2019-01-15T03:03:21.391Z,44.37
2019-01-15T03:04:18.530Z,44.52
2019-01-15T03:05:15.566Z,44.63
2019-01-15T03:06:12.602Z,44.39
2019-01-15T03:07:09.654Z,44.64
2019-01-15T03:08:06.726Z,44.29
2019-01-15T03:09:03.807Z,44.39
2019-01-15T03:10:00.857Z,44.44
2019-01-15T03:10:57.996Z,44.23
2019-01-15T03:11:55.064Z,44.39
2019-01-15T03:12:55.927Z,44.27
2019-01-15T03:13:49.149Z,44.40
2019-01-15T03:14:46.268Z,44.73
2019-01-15T03:15:43.275Z,44.40
2019-01-15T03:16:40.323Z,44.39
2019-01-15T03:17:38.271Z,44.37
2019-01-15T03:18:34.447Z,44.33
2019-01-15T03:19:31.569Z,44.38
2019-01-15T03:20:28.567Z,44.83
2019-01-15T03:21:26.675Z,44.38
2019-01-15T03:22:22.737Z,44.55
2019-01-15T03:23:20.667Z,44.39
2019-01-15T03:24:16.896Z,44.37
2019-01-15T03:25:13.899Z,44.39
2019-01-15T03:26:11.873Z,44.38
2019-01-15T03:27:08.093Z,44.38
2019-01-15T03:28:05.101Z,44.38
2019-01-15T03:29:02.259Z,44.38
2019-01-15T03:29:59.231Z,44.26
2019-01-15T03:30:56.358Z,44.38
2019-01-15T03:31:53.382Z,44.27
2019-01-15T03:32:51.332Z,44.30
2019-01-15T03:33:47.510Z,44.38
2019-01-15T03:34:44.592Z,44.38
2019-01-15T03:35:42.519Z,44.39
2019-01-15T03:36:38.695Z,44.62
2019-01-15T03:37:35.755Z,44.42
2019-01-15T03:38:33.714Z,44.42
2019-01-15T03:39:30.800Z,44.39
2019-01-15T03:40:26.982Z,44.39
2019-01-15T03:41:24.926Z,44.39
2019-01-15T03:42:21.108Z,44.20
2019-01-15T03:43:18.157Z,44.43
2019-01-15T03:44:15.265Z,44.35
2019-01-15T03:45:12.352Z,44.27
2019-01-15T03:46:10.246Z,44.37
2019-01-15T03:47:06.436Z,44.35
2019-01-15T03:48:03.517Z,44.37
2019-01-15T03:49:01.432Z,44.47
2019-01-15T03:49:57.672Z,44.57
2019-01-15T03:50:54.711Z,44.29
2019-01-15T03:51:51.953Z,44.35
2019-01-15T03:52:48.866Z,44.00
2019-01-15T03:53:45.899Z,44.27
2019-01-15T03:54:42.987Z,44.35
2019-01-15T03:55:40.204Z,44.35
2019-01-15T03:56:38.162Z,44.04
2019-01-15T03:57:34.164Z,44.35
2019-01-15T03:58:31.286Z,44.29
2019-01-15T03:59:28.284Z,44.35
2019-01-15T04:00:25.375Z,44.36
2019-01-15T04:01:23.297Z,44.35
2019-01-15T04:02:20.358Z,44.33
2019-01-15T04:03:16.567Z,44.33
2019-01-15T04:04:13.606Z,44.33
2019-01-15T04:05:11.577Z,44.34
2019-01-15T04:06:07.795Z,44.34
2019-01-15T04:07:05.698Z,43.96
2019-01-15T04:08:01.888Z,44.34
2019-01-15T04:08:59.824Z,44.30
2019-01-15T04:09:56.057Z,44.35
2019-01-15T04:10:53.959Z,44.50
2019-01-15T04:11:51.040Z,44.34
2019-01-15T04:12:47.206Z,44.35
2019-01-15T04:13:45.163Z,44.09
2019-01-15T04:14:42.227Z,44.07
2019-01-15T04:15:39.312Z,44.35
2019-01-15T04:16:36.346Z,44.34
2019-01-15T04:17:33.417Z,44.36
2019-01-15T04:18:29.599Z,44.06
2019-01-15T04:19:26.659Z,44.34
2019-01-15T04:20:23.783Z,44.35
2019-01-15T04:21:20.857Z,44.36
2019-01-15T04:22:17.921Z,44.37
2019-01-15T04:23:15.815Z,44.37
2019-01-15T04:24:11.989Z,44.36
2019-01-15T04:25:09.072Z,44.55
2019-01-15T04:26:06.206Z,44.35
2019-01-15T04:27:03.280Z,44.36
2019-01-15T04:28:00.280Z,44.37
2019-01-15T04:28:57.318Z,44.38
2019-01-15T04:29:54.445Z,44.37
2019-01-15T04:30:52.350Z,44.59
2019-01-15T04:31:50.412Z,44.36
2019-01-15T04:32:46.488Z,44.38
2019-01-15T04:33:42.686Z,44.38
2019-01-15T04:34:39.772Z,44.38
2019-01-15T04:35:36.802Z,44.28
2019-01-15T04:36:33.873Z,44.52
2019-01-15T04:37:31.917Z,44.39
2019-01-15T04:38:29.061Z,44.40
2019-01-15T04:39:25.947Z,44.41
2019-01-15T04:40:23.009Z,44.52
2019-01-15T04:41:20.172Z,44.39
2019-01-15T04:42:17.134Z,44.11
2019-01-15T04:43:19.665Z,44.41
2019-01-15T04:44:11.267Z,44.39
2019-01-15T04:45:07.476Z,44.81
2019-01-15T04:46:04.628Z,44.38
2019-01-15T04:47:02.601Z,44.40
2019-01-15T04:47:58.689Z,43.92
2019-01-15T04:48:55.764Z,44.39
2019-01-15T04:49:53.674Z,44.39
2019-01-15T04:50:49.866Z,44.43
2019-01-15T04:51:47.794Z,44.40
2019-01-15T04:52:44.868Z,44.35
2019-01-15T04:53:41.929Z,44.06
2019-01-15T04:54:38.159Z,44.38
2019-01-15T04:55:36.052Z,44.06
2019-01-15T04:56:32.278Z,44.40
2019-01-15T04:57:29.370Z,44.31
2019-01-15T04:58:26.387Z,44.09
2019-01-15T04:59:23.447Z,44.38
2019-01-15T05:00:20.521Z,44.39
2019-01-15T05:01:18.459Z,44.07
2019-01-15T05:02:14.663Z,44.39
2019-01-15T05:03:11.693Z,44.36
2019-01-15T05:04:08.769Z,44.41
2019-01-15T05:05:05.870Z,44.41
2019-01-15T05:06:02.902Z,44.69
2019-01-15T05:07:00.884Z,44.41
2019-01-15T05:07:57.031Z,44.38
2019-01-15T05:08:54.156Z,44.36
2019-01-15T05:09:52.062Z,43.42
2019-01-15T05:10:48.244Z,44.29
2019-01-15T05:11:46.174Z,44.84
2019-01-15T05:12:43.245Z,44.41
2019-01-15T05:13:40.320Z,44.42
2019-01-15T05:14:36.542Z,43.83
2019-01-15T05:15:34.447Z,44.43
2019-01-15T05:16:30.677Z,44.53
2019-01-15T05:17:27.700Z,44.44
2019-01-15T05:18:24.810Z,43.49
2019-01-15T05:19:22.706Z,44.09
2019-01-15T05:20:18.883Z,44.47
2019-01-15T05:21:16.840Z,44.43
2019-01-15T05:22:14.011Z,44.45
2019-01-15T05:23:10.099Z,44.43
2019-01-15T05:24:07.229Z,44.43
2019-01-15T05:25:04.213Z,44.42
2019-01-15T05:26:01.344Z,43.99
2019-01-15T05:26:58.338Z,44.44
2019-01-15T05:27:55.451Z,44.44
2019-01-15T05:28:53.366Z,44.43
2019-01-15T05:29:49.558Z,44.42
2019-01-15T05:30:46.698Z,44.65
2019-01-15T05:31:44.568Z,44.33
2019-01-15T05:32:40.770Z,44.59
2019-01-15T05:33:37.872Z,44.46
2019-01-15T05:34:34.870Z,44.45
2019-01-15T05:35:32.019Z,44.45
2019-01-15T05:36:29.893Z,44.45
2019-01-15T05:37:26.960Z,44.44
2019-01-15T05:38:23.185Z,44.31
2019-01-15T05:39:20.207Z,44.45
2019-01-15T05:40:17.354Z,44.46
2019-01-15T05:41:15.238Z,44.44
2019-01-15T05:42:11.406Z,44.50
2019-01-15T05:43:08.560Z,44.46
2019-01-15T05:44:05.567Z,44.46
2019-01-15T05:45:02.660Z,44.47
2019-01-15T05:46:00.550Z,44.46
2019-01-15T05:46:56.759Z,44.46
2019-01-15T05:47:53.860Z,44.62
2019-01-15T05:48:50.921Z,44.46
2019-01-15T05:49:47.951Z,44.45
2019-01-15T05:50:44.997Z,44.02
2019-01-15T05:51:42.118Z,44.66
2019-01-15T05:52:39.463Z,43.77
2019-01-15T05:53:36.229Z,44.47
2019-01-15T05:54:34.155Z,44.46
2019-01-15T05:55:31.220Z,44.46
2019-01-15T05:56:28.287Z,43.60
2019-01-15T05:57:24.470Z,43.87
2019-01-15T05:58:22.446Z,44.46
2019-01-15T05:59:19.470Z,44.52
2019-01-15T06:00:16.566Z,44.45
2019-01-15T06:01:12.823Z,44.46
2019-01-15T06:02:09.856Z,44.46
2019-01-15T06:03:07.743Z,44.15
2019-01-15T06:04:04.028Z,44.63
2019-01-15T06:05:02.328Z,44.57
2019-01-15T06:05:58.128Z,44.46
2019-01-15T06:06:56.008Z,43.99
2019-01-15T06:07:53.389Z,44.47
2019-01-15T06:08:49.333Z,45.35
2019-01-15T06:09:47.207Z,44.51
2019-01-15T06:10:44.463Z,44.25
2019-01-15T06:11:41.333Z,44.46
2019-01-15T06:12:38.410Z,44.46
2019-01-15T06:13:34.865Z,43.76
2019-01-15T06:14:31.700Z,44.45
2019-01-15T06:15:29.611Z,44.45
2019-01-15T06:16:25.778Z,44.32
2019-01-15T06:17:23.728Z,44.43
2019-01-15T06:18:19.897Z,44.41
2019-01-15T06:19:17.045Z,44.35
2019-01-15T06:20:14.922Z,44.39
2019-01-15T06:21:11.113Z,44.73
2019-01-15T06:22:08.257Z,44.37
2019-01-15T06:23:05.303Z,44.37
2019-01-15T06:24:03.195Z,44.44
2019-01-15T06:25:01.256Z,44.36
2019-01-15T06:25:56.438Z,43.41
2019-01-15T06:26:53.834Z,44.27
2019-01-15T06:27:51.458Z,44.16
2019-01-15T06:28:48.833Z,44.07
2019-01-15T06:29:45.731Z,44.32
2019-01-15T06:30:41.789Z,44.20
2019-01-15T06:31:38.827Z,43.84
2019-01-15T06:32:36.265Z,44.33
2019-01-15T06:33:32.982Z,43.79
2019-01-15T06:34:30.930Z,44.34
2019-01-15T06:35:27.133Z,44.32
2019-01-15T06:36:24.156Z,44.32
2019-01-15T06:37:22.109Z,44.53
2019-01-15T06:38:18.306Z,44.72
2019-01-15T06:39:15.444Z,44.30
2019-01-15T06:40:13.309Z,44.30
2019-01-15T06:41:10.387Z,44.29
2019-01-15T06:42:06.554Z,44.70
2019-01-15T06:43:04.518Z,44.30
2019-01-15T06:44:00.738Z,44.55
2019-01-15T06:44:58.642Z,44.33
2019-01-15T06:45:54.964Z,44.54
2019-01-15T06:46:52.777Z,44.31
2019-01-15T06:47:48.989Z,44.29
2019-01-15T06:48:46.071Z,44.29
2019-01-15T06:49:44.001Z,44.31
2019-01-15T06:50:41.041Z,44.31
2019-01-15T06:51:37.206Z,44.29
2019-01-15T06:52:34.281Z,44.28
2019-01-15T06:53:32.244Z,44.27
2019-01-15T06:54:29.303Z,44.38
2019-01-15T06:55:25.498Z,44.28
2019-01-15T06:56:23.435Z,44.29
2019-01-15T06:57:20.496Z,44.32
2019-01-15T06:58:16.747Z,43.93
2019-01-15T06:59:14.137Z,44.26
2019-01-15T07:00:10.815Z,44.26
2019-01-15T07:01:08.764Z,44.26
2019-01-15T07:02:04.960Z,44.40
2019-01-15T07:03:02.893Z,44.27
2019-01-15T07:03:59.156Z,44.31
2019-01-15T07:04:57.219Z,44.33
2019-01-15T07:05:54.105Z,44.38
2019-01-15T07:06:50.359Z,44.42
2019-01-15T07:07:48.231Z,44.42
2019-01-15T07:08:44.394Z,44.42
2019-01-15T07:09:41.569Z,44.37
2019-01-15T07:10:38.611Z,44.34
2019-01-15T07:11:36.615Z,44.30
2019-01-15T07:12:32.730Z,44.26
2019-01-15T07:13:29.817Z,44.20
2019-01-15T07:14:27.690Z,44.17
2019-01-15T07:15:24.760Z,44.53
2019-01-15T07:16:23.013Z,44.15
2019-01-15T07:17:18.019Z,44.16
2019-01-15T07:18:15.155Z,44.02
2019-01-15T07:19:13.408Z,44.00
2019-01-15T07:20:09.185Z,44.12
2019-01-15T07:21:07.146Z,43.97
2019-01-15T07:22:03.412Z,43.96
2019-01-15T07:23:00.445Z,43.94
2019-01-15T07:23:58.353Z,44.15
2019-01-15T07:24:55.418Z,43.75
2019-01-15T07:25:52.480Z,43.24
2019-01-15T07:26:48.750Z,44.22
2019-01-15T07:27:46.606Z,43.86
2019-01-15T07:28:43.686Z,43.77
2019-01-15T07:29:40.740Z,43.76
2019-01-15T07:30:37.814Z,43.75
2019-01-15T07:31:35.004Z,43.70
2019-01-15T07:32:31.945Z,43.74
2019-01-15T07:33:28.115Z,43.73
2019-01-15T07:34:26.071Z,43.72
2019-01-15T07:35:22.241Z,43.97
2019-01-15T07:36:20.207Z,43.70
2019-01-15T07:37:17.469Z,43.68
2019-01-15T07:38:13.448Z,43.69
2019-01-15T07:39:11.405Z,43.67
2019-01-15T07:40:08.598Z,43.67
2019-01-15T07:41:05.560Z,43.67
2019-01-15T07:42:02.608Z,43.43
2019-01-15T07:42:59.657Z,43.68
2019-01-15T07:43:56.726Z,43.66
2019-01-15T07:44:52.911Z,43.66
2019-01-15T07:45:50.012Z,43.64
2019-01-15T07:46:47.934Z,43.50
2019-01-15T07:47:44.155Z,43.60
2019-01-15T07:48:42.050Z,43.59
2019-01-15T07:49:39.138Z,43.55
2019-01-15T07:50:36.191Z,43.41
2019-01-15T07:51:33.254Z,43.53
2019-01-15T07:52:30.322Z,44.00
2019-01-15T07:53:27.394Z,43.54
2019-01-15T07:54:23.595Z,43.55
2019-01-15T07:55:21.517Z,43.51
2019-01-15T07:56:18.594Z,43.50
2019-01-15T07:57:14.778Z,43.59
2019-01-15T07:58:12.732Z,43.48
2019-01-15T07:59:09.776Z,43.47
2019-01-15T08:00:06.847Z,43.65
2019-01-15T08:01:03.912Z,43.46
2019-01-15T08:02:00.980Z,43.47
2019-01-15T08:02:57.197Z,44.72
2019-01-15T08:03:54.216Z,43.46
2019-01-15T08:04:52.283Z,43.19
2019-01-15T08:05:49.238Z,43.44
2019-01-15T08:06:46.355Z,43.44
2019-01-15T08:07:42.653Z,43.46
2019-01-15T08:08:40.432Z,43.46
2019-01-15T08:09:36.671Z,43.47
2019-01-15T08:10:34.574Z,43.48
2019-01-15T08:11:30.842Z,43.49
2019-01-15T08:12:28.708Z,43.71
2019-01-15T08:13:25.768Z,43.52
2019-01-15T08:14:22.842Z,43.53
2019-01-15T08:15:19.902Z,44.69
2019-01-15T08:16:16.975Z,43.44
2019-01-15T08:17:14.236Z,43.54
2019-01-15T08:18:11.104Z,43.56
2019-01-15T08:19:07.359Z,43.58
2019-01-15T08:20:05.229Z,43.60
2019-01-15T08:21:02.300Z,43.61
2019-01-15T08:21:59.364Z,43.27
2019-01-15T08:22:56.424Z,43.68
2019-01-15T08:23:53.500Z,43.69
2019-01-15T08:24:51.565Z,43.74
2019-01-15T08:25:47.647Z,43.83
2019-01-15T08:26:44.702Z,43.79
2019-01-15T08:27:41.766Z,43.94
2019-01-15T08:28:38.815Z,43.84
2019-01-15T08:29:35.894Z,44.23
2019-01-15T08:30:32.965Z,43.61
2019-01-15T08:31:30.023Z,43.91
2019-01-15T08:32:27.081Z,43.95
2019-01-15T08:33:24.153Z,44.16
2019-01-15T08:34:21.220Z,44.27
2019-01-15T08:35:18.286Z,43.84
2019-01-15T08:36:15.371Z,44.00
2019-01-15T08:37:12.422Z,44.03
2019-01-15T08:38:09.486Z,44.04
2019-01-15T08:39:06.560Z,44.01
2019-01-15T08:40:03.618Z,44.07
2019-01-15T08:41:00.690Z,44.04
2019-01-15T08:41:57.751Z,44.11
2019-01-15T08:42:54.829Z,44.00
2019-01-15T08:43:51.880Z,44.14
2019-01-15T08:44:48.941Z,44.15
2019-01-15T08:45:46.010Z,44.14
2019-01-15T08:46:43.076Z,44.15
2019-01-15T08:47:40.132Z,44.15
2019-01-15T08:48:37.205Z,44.16
2019-01-15T08:49:34.283Z,44.16
2019-01-15T08:50:31.341Z,44.17
2019-01-15T08:51:28.405Z,44.15
2019-01-15T08:52:25.467Z,44.17
2019-01-15T08:53:22.557Z,44.18
2019-01-15T08:54:19.612Z,44.15
2019-01-15T08:55:16.670Z,44.18
2019-01-15T08:56:13.734Z,44.18
2019-01-15T08:57:10.803Z,44.19
2019-01-15T08:58:07.884Z,44.21
2019-01-15T08:59:05.933Z,44.21
2019-01-15T09:00:02.229Z,44.23
2019-01-15T09:00:59.054Z,44.28
2019-01-15T09:01:56.135Z,44.30
2019-01-15T09:02:53.192Z,44.31
2019-01-15T09:03:50.261Z,44.43
2019-01-15T09:04:47.337Z,44.27
2019-01-15T09:05:44.401Z,44.26
2019-01-15T09:06:41.782Z,44.53
2019-01-15T09:07:38.524Z,44.00
2019-01-15T09:08:35.601Z,44.14
2019-01-15T09:09:33.654Z,43.87
2019-01-15T09:10:29.737Z,44.07
2019-01-15T09:11:26.790Z,43.36
2019-01-15T09:12:23.850Z,43.98
2019-01-15T09:13:21.009Z,43.96
2019-01-15T09:14:17.980Z,43.92
2019-01-15T09:15:15.055Z,43.63
2019-01-15T09:16:12.116Z,43.94
2019-01-15T09:17:11.131Z,43.88
2019-01-15T09:18:06.261Z,43.87
2019-01-15T09:19:03.316Z,43.87
2019-01-15T09:20:00.379Z,43.87
2019-01-15T09:20:57.457Z,43.86
2019-01-15T09:21:54.507Z,43.86
2019-01-15T09:22:51.648Z,43.63
2019-01-15T09:23:48.648Z,43.84
2019-01-15T09:24:45.713Z,43.84
2019-01-15T09:25:42.786Z,43.84
2019-01-15T09:26:39.847Z,43.84
2019-01-15T09:27:36.926Z,43.62
2019-01-15T09:28:33.965Z,43.83
2019-01-15T09:29:31.049Z,43.83
2019-01-15T09:30:28.104Z,43.82
2019-01-15T09:31:25.170Z,43.83
2019-01-15T09:32:22.244Z,43.59
2019-01-15T09:33:19.297Z,43.84
2019-01-15T09:34:16.367Z,43.84
2019-01-15T09:35:13.432Z,44.25
2019-01-15T09:36:10.501Z,43.78
2019-01-15T09:37:08.605Z,43.91
2019-01-15T09:38:04.638Z,43.84
2019-01-15T09:39:01.712Z,44.09
2019-01-15T09:39:58.766Z,43.87
2019-01-15T09:40:55.832Z,43.87
2019-01-15T09:41:52.893Z,43.89
2019-01-15T09:42:49.965Z,43.89
2019-01-15T09:43:47.023Z,44.12
2019-01-15T09:44:44.116Z,43.86
2019-01-15T09:45:41.157Z,43.87
2019-01-15T09:46:38.221Z,43.89
2019-01-15T09:47:35.326Z,43.88
2019-01-15T09:48:32.354Z,44.68
2019-01-15T09:49:29.423Z,43.91
2019-01-15T09:50:26.613Z,43.90
2019-01-15T09:51:23.560Z,43.68
2019-01-15T09:52:20.809Z,43.91
2019-01-15T09:53:17.687Z,43.93
2019-01-15T09:54:15.751Z,44.25
2019-01-15T09:55:11.814Z,43.92
2019-01-15T09:56:08.887Z,43.94
2019-01-15T09:57:05.962Z,43.79
2019-01-15T09:58:03.013Z,43.94
2019-01-15T09:59:00.074Z,43.77
2019-01-15T09:59:57.143Z,44.05
2019-01-15T10:00:54.213Z,43.88
2019-01-15T10:01:51.302Z,43.94
2019-01-15T10:02:48.366Z,43.94
2019-01-15T10:03:45.413Z,43.84
2019-01-15T10:04:42.578Z,44.05
2019-01-15T10:05:39.537Z,43.97
2019-01-15T10:06:36.611Z,44.16
2019-01-15T10:07:33.676Z,43.96
2019-01-15T10:08:30.747Z,43.96
2019-01-15T10:09:27.804Z,43.95
2019-01-15T10:10:24.877Z,43.94
2019-01-15T10:11:22.936Z,43.96
2019-01-15T10:12:19.001Z,43.95
2019-01-15T10:13:16.070Z,43.95
2019-01-15T10:14:13.137Z,43.69
2019-01-15T10:15:10.219Z,44.54
2019-01-15T10:16:07.259Z,43.96
2019-01-15T10:17:04.337Z,43.96
2019-01-15T10:18:01.403Z,43.97
2019-01-15T10:18:58.472Z,44.24
2019-01-15T10:19:55.529Z,43.78
2019-01-15T10:20:52.596Z,43.61
2019-01-15T10:21:49.658Z,43.58
2019-01-15T10:22:46.729Z,43.96
2019-01-15T10:23:43.791Z,43.97
2019-01-15T10:24:40.859Z,43.97
2019-01-15T10:25:37.936Z,44.29
2019-01-15T10:26:34.995Z,44.00
2019-01-15T10:27:32.064Z,43.64
2019-01-15T10:28:30.121Z,44.07
2019-01-15T10:29:26.208Z,44.00
2019-01-15T10:30:23.255Z,44.37
2019-01-15T10:31:20.361Z,44.00
2019-01-15T10:32:17.394Z,43.92
2019-01-15T10:33:14.591Z,43.90
2019-01-15T10:34:11.525Z,43.85
2019-01-15T10:35:08.583Z,43.81
2019-01-15T10:36:05.677Z,43.77
2019-01-15T10:37:02.740Z,43.75
2019-01-15T10:37:59.783Z,43.58
2019-01-15T10:38:56.838Z,43.69
2019-01-15T10:39:53.912Z,43.68
2019-01-15T10:40:50.991Z,43.67
2019-01-15T10:41:48.046Z,43.66
2019-01-15T10:42:45.108Z,44.63
2019-01-15T10:43:42.176Z,43.64
2019-01-15T10:44:39.432Z,43.62
2019-01-15T10:45:37.311Z,43.62
2019-01-15T10:46:33.390Z,43.64
2019-01-15T10:47:30.489Z,43.70
2019-01-15T10:48:27.511Z,43.57
2019-01-15T10:49:24.569Z,43.56
2019-01-15T10:50:21.638Z,43.55
2019-01-15T10:51:18.706Z,43.54
2019-01-15T10:52:15.762Z,43.53
2019-01-15T10:53:12.835Z,43.64
2019-01-15T10:54:09.962Z,43.54
2019-01-15T10:55:06.969Z,43.52
2019-01-15T10:56:05.042Z,43.50
2019-01-15T10:57:01.095Z,43.53
2019-01-15T10:57:58.493Z,43.53
2019-01-15T10:58:55.229Z,43.92
2019-01-15T10:59:52.293Z,43.53
2019-01-15T11:00:49.362Z,43.52
2019-01-15T11:01:45.575Z,43.60
2019-01-15T11:02:43.496Z,43.65
2019-01-15T11:03:39.660Z,43.80
2019-01-15T11:04:36.844Z,43.70
2019-01-15T11:05:33.820Z,43.69
2019-01-15T11:06:30.862Z,43.90
2019-01-15T11:07:27.936Z,43.67
2019-01-15T11:08:24.999Z,43.57
2019-01-15T11:09:22.061Z,44.61
2019-01-15T11:10:19.155Z,43.67
2019-01-15T11:11:16.248Z,43.54
2019-01-15T11:12:14.154Z,43.49
2019-01-15T11:13:12.217Z,44.54
2019-01-15T11:14:08.282Z,43.69
2019-01-15T11:15:04.625Z,43.65
2019-01-15T11:16:02.421Z,43.66
2019-01-15T11:16:58.629Z,43.67
2019-01-15T11:17:55.662Z,43.76
2019-01-15T11:18:53.622Z,43.83
2019-01-15T11:19:49.810Z,43.72
2019-01-15T11:20:46.916Z,44.03
2019-01-15T11:21:43.931Z,43.99
2019-01-15T11:22:40.988Z,44.03
2019-01-15T11:23:38.947Z,44.00
2019-01-15T11:24:35.126Z,43.64
2019-01-15T11:25:32.175Z,43.99
2019-01-15T11:26:29.249Z,44.01
2019-01-15T11:27:27.217Z,44.01
2019-01-15T11:28:24.268Z,44.05
2019-01-15T11:29:20.507Z,44.05
2019-01-15T11:30:18.409Z,44.27
2019-01-15T11:31:14.578Z,44.30
2019-01-15T11:32:12.626Z,43.42
2019-01-15T11:33:09.600Z,44.06
2019-01-15T11:34:06.673Z,44.38
2019-01-15T11:35:02.871Z,44.08
2019-01-15T11:36:57.061Z,44.07
2019-01-15T11:37:54.066Z,44.14
2019-01-15T11:38:51.141Z,43.73
2019-01-15T11:39:48.178Z,44.34
2019-01-15T11:40:45.230Z,44.21
2019-01-15T11:41:42.320Z,44.05
2019-01-15T11:42:39.361Z,43.97
2019-01-15T11:43:36.434Z,44.22
2019-01-15T11:44:33.568Z,44.01
2019-01-15T11:45:30.571Z,44.24
2019-01-15T11:46:28.656Z,44.27
2019-01-15T11:47:24.696Z,44.29
2019-01-15T11:48:21.758Z,44.11
2019-01-15T11:49:18.832Z,44.26
2019-01-15T11:50:16.795Z,44.30
2019-01-15T11:51:13.855Z,44.29
2019-01-15T11:52:10.921Z,44.53
2019-01-15T11:53:07.990Z,44.30
2019-01-15T11:54:04.164Z,44.16
2019-01-15T11:55:01.219Z,44.16
2019-01-15T11:55:59.181Z,44.22
2019-01-15T11:56:55.357Z,43.97
2019-01-15T11:57:52.415Z,44.36
2019-01-15T11:58:49.571Z,43.94
2019-01-15T11:59:47.442Z,44.13
2019-01-15T12:00:43.651Z,43.66
2019-01-15T12:01:40.717Z,44.11
2019-01-15T12:02:38.657Z,43.97
2019-01-15T12:03:34.820Z,43.63
2019-01-15T12:04:31.883Z,43.83
2019-01-15T12:05:28.951Z,44.23
2019-01-15T12:06:26.910Z,43.71
2019-01-15T12:07:23.385Z,42.73
2019-01-15T12:08:20.263Z,43.66
2019-01-15T12:09:17.237Z,43.66
2019-01-15T12:10:15.183Z,43.65
2019-01-15T12:11:11.362Z,43.06
2019-01-15T12:12:08.492Z,43.70
2019-01-15T12:13:06.371Z,43.65
2019-01-15T12:14:02.541Z,43.65
2019-01-15T12:14:59.990Z,43.62
2019-01-15T12:15:57.750Z,43.62